This is the latest recevied weather packets stored in our database for station/object AC5JC-1. If no packets are shown the sender has not sent any weather packets the latest 10 day(s).
| Time | Temp. | Humidity | Pressure | Rain* | Wind** | Luminosity | Snow |
|---|---|---|---|---|---|---|---|
| 1777887335 | 16.11° C | 76% | 1013.2 hPa | 0 mm | - | 0 W/m² | - |
| 1777886135 | 16.67° C | 75% | 1013.2 hPa | 0 mm | - | 0 W/m² | - |
| 1777884661 | 16.67° C | 75% | 1013.7 hPa | 0 mm | - | 0 W/m² | - |
| 1777882585 | 16.67° C | 74% | 1013.9 hPa | 0 mm | - | 0 W/m² | - |
| 1777881935 | 16.67° C | 73% | 1013.9 hPa | 0 mm | - | 0 W/m² | - |
| 1777875935 | 17.22° C | 72% | 1015.1 hPa | 0 mm | - | 0 W/m² | - |
| 1777872935 | 17.78° C | 69% | 1015.5 hPa | 0 mm | - | 0 W/m² | - |
| 1777867236 | 19.44° C | 63% | 1016.3 hPa | 0 mm | - | 0 W/m² | - |
| 1777866935 | 19.44° C | 63% | 1016.2 hPa | 0 mm | - | 0 W/m² | - |
| 1777864835 | 20° C | 60% | 1016 hPa | 0 mm | - | 0 W/m² | - |
| 1777864262 | 20° C | 59% | 1016.1 hPa | 0 mm | - | 0 W/m² | - |
| 1777861556 | 20.56° C | 57% | 1015.7 hPa | 0 mm | - | 0 W/m² | - |
| 1777860678 | 20.56° C | 55% | 1015.5 hPa | 0 mm | - | 0 W/m² | - |
| 1777851366 | 26.67° C | 39% | 1015.6 hPa | 0 mm | - | 187 W/m² | - |
| 1777851046 | 26.11° C | 39% | 1015.7 hPa | 0 mm | - | 201 W/m² | - |
| 1777850469 | 26.11° C | 39% | 1015.7 hPa | 0 mm | - | 235 W/m² | - |
| 1777850150 | 26.11° C | 40% | 1015.8 hPa | 0 mm | - | 213 W/m² | - |
| 1777849574 | 26.67° C | 40% | 1015.9 hPa | 0 mm | - | 260 W/m² | - |
| 1777845926 | 27.22° C | 37% | 1016.4 hPa | 0 mm | - | 464 W/m² | - |
| 1777842054 | 27.78° C | 36% | 1017.4 hPa | 0 mm | - | 568 W/m² | - |
| 1777841478 | 28.33° C | 34% | 1017.6 hPa | 0 mm | - | 556 W/m² | - |
| 1777840236 | 28.33° C | 36% | 1017.9 hPa | 0 mm | - | 605 W/m² | - |
| 1777839635 | 27.78° C | 36% | 1018.1 hPa | 0 mm | - | 685 W/m² | - |
| 1777839356 | 27.78° C | 36% | 1018.2 hPa | 0 mm | - | 696 W/m² | - |
| 1777839035 | 28.33° C | 37% | 1018.3 hPa | 0 mm | - | 690 W/m² | - |
* Rain latest hour (hover to see other rain measurements)
** Current wind speed in m/s (hover to see current wind gust speed)